Time;durP1;ratioP1;P1;durP2;ratioP2;P2;SDS_P1;SDS_P2;PMS_P1;PMS_P2;Temp;Humidity;BMP_temperature;BMP_pressure;BME280_temperature;BME280_humidity;BME280_pressure;Samples;Min_cycle;Max_cycle;Signal;HPM_P1;HPM_P2
2021/06/03 00:02:17;;;;;;;6.60;4.15;;;;;;;16.89;57.19;101622.59;5033272;28;20036;-73
2021/06/03 00:04:43;;;;;;;5.32;3.72;;;;;;;16.91;57.06;101620.91;5032168;28;20025;-73
2021/06/03 00:07:10;;;;;;;8.48;4.60;;;;;;;16.87;57.00;101619.03;5034289;28;20059;-73
2021/06/03 00:09:36;;;;;;;6.80;4.05;;;;;;;16.86;57.29;101621.56;5038168;28;20028;-73
2021/06/03 00:12:01;;;;;;;6.50;4.75;;;;;;;16.81;57.56;101618.78;5042842;28;20029;-73
2021/06/03 00:14:27;;;;;;;5.75;4.30;;;;;;;16.87;57.14;101619.03;5031918;28;20017;-72
2021/06/03 00:16:53;;;;;;;7.07;4.43;;;;;;;16.82;56.95;101615.38;5033315;28;20028;-73
2021/06/03 00:19:19;;;;;;;9.20;4.50;;;;;;;16.70;57.57;101615.75;5033016;28;20031;-73
2021/06/03 00:21:44;;;;;;;6.95;3.80;;;;;;;16.72;57.42;101613.22;5015179;28;20045;-73
2021/06/03 00:24:12;;;;;;;5.90;4.18;;;;;;;16.72;57.57;101619.31;5032898;28;20025;-73
2021/06/03 00:26:38;;;;;;;7.13;4.10;;;;;;;16.71;57.56;101616.66;5044113;28;20032;-73
2021/06/03 00:29:05;;;;;;;6.38;4.00;;;;;;;16.60;57.65;101617.13;5051642;28;20493;-72
2021/06/03 00:31:31;;;;;;;5.68;4.00;;;;;;;16.68;57.27;101621.75;5051687;28;20123;-73
2021/06/03 00:33:56;;;;;;;7.10;4.43;;;;;;;16.65;57.30;101613.00;5051543;28;20070;-72
2021/06/03 00:36:22;;;;;;;7.43;4.03;;;;;;;16.73;57.21;101615.00;5051704;28;20025;-73
2021/06/03 00:38:47;;;;;;;5.75;4.35;;;;;;;16.70;57.27;101604.47;5051530;28;20035;-73
2021/06/03 00:41:14;;;;;;;5.55;4.40;;;;;;;16.59;57.50;101604.94;5051561;28;20021;-72
2021/06/03 00:43:41;;;;;;;6.75;4.32;;;;;;;16.53;57.70;101607.31;5049785;28;20033;-73
2021/06/03 00:46:07;;;;;;;5.90;4.18;;;;;;;16.55;57.93;101613.44;5031827;28;20037;-73
2021/06/03 00:48:33;;;;;;;10.43;5.15;;;;;;;16.49;57.80;101610.59;5031469;28;20083;-74
2021/06/03 00:51:01;;;;;;;5.85;3.90;;;;;;;16.45;58.24;101614.78;5031570;28;20549;-73
2021/06/03 00:53:27;;;;;;;7.25;4.15;;;;;;;16.43;58.06;101611.22;5031677;28;20075;-73
2021/06/03 00:55:56;;;;;;;9.75;4.43;;;;;;;16.42;58.21;101618.94;5031521;28;20022;-74
2021/06/03 00:58:22;;;;;;;6.90;4.30;;;;;;;16.34;57.98;101616.94;5031400;28;20018;-73
2021/06/03 01:00:49;;;;;;;6.57;4.18;;;;;;;16.32;58.45;101615.97;5032394;28;20104;-73
2021/06/03 01:03:16;;;;;;;8.35;3.97;;;;;;;16.36;58.18;101612.69;5050985;28;20056;-73
2021/06/03 01:05:52;;;;;;;6.07;4.00;;;;;;;16.28;58.27;101616.69;5051159;28;20029;-72
2021/06/03 01:08:22;;;;;;;5.65;3.97;;;;;;;16.25;58.45;101616.56;5051208;28;20095;-72
2021/06/03 01:10:58;;;;;;;7.35;4.20;;;;;;;16.22;58.58;101611.22;5051357;28;20083;-72
2021/06/03 01:13:47;;;;;;;7.35;4.32;;;;;;;16.19;58.85;101616.28;5051152;28;20529;-73
2021/06/03 01:16:13;;;;;;;11.45;4.20;;;;;;;16.09;59.21;101614.13;5051250;28;20382;-73
2021/06/03 01:18:40;;;;;;;7.28;4.20;;;;;;;16.15;58.62;101614.41;5051099;28;20532;-72
2021/06/03 01:21:10;;;;;;;5.85;4.25;;;;;;;16.13;58.87;101608.25;5032625;28;20115;-72
2021/06/03 01:23:43;;;;;;;7.55;4.47;;;;;;;16.12;58.98;101603.88;5031084;28;20021;-72
2021/06/03 01:26:09;;;;;;;5.70;4.00;;;;;;;16.11;59.06;101617.69;5032414;28;20475;-72
2021/06/03 01:28:35;;;;;;;6.95;4.32;;;;;;;16.00;59.22;101609.47;5032392;28;20041;-73
2021/06/03 01:31:03;;;;;;;5.30;4.07;;;;;;;16.02;58.96;101619.06;5033176;28;20029;-72
2021/06/03 01:33:31;;;;;;;6.35;4.15;;;;;;;16.00;59.09;101610.34;5031109;28;20081;-73
2021/06/03 01:35:59;;;;;;;8.57;4.10;;;;;;;15.98;59.26;101609.38;5031066;28;20025;-72
2021/06/03 01:38:28;;;;;;;8.13;4.38;;;;;;;15.94;59.40;101615.25;5031047;28;20028;-73
2021/06/03 01:40:54;;;;;;;7.50;4.53;;;;;;;15.90;59.51;101605.56;5046967;28;20124;-72
2021/06/03 01:43:22;;;;;;;8.13;4.70;;;;;;;15.98;59.39;101606.78;5050981;28;20033;-73
2021/06/03 01:45:49;;;;;;;10.85;4.65;;;;;;;15.90;59.32;101608.16;5050949;28;20031;-72
2021/06/03 01:48:19;;;;;;;5.60;4.00;;;;;;;15.82;59.57;101609.50;5050747;28;20095;-73
2021/06/03 01:50:47;;;;;;;6.30;4.50;;;;;;;15.78;59.83;101609.38;5041339;28;20056;-73
2021/06/03 01:53:14;;;;;;;7.05;4.88;;;;;;;15.73;60.15;101605.69;5014480;28;20394;-73
2021/06/03 01:55:40;;;;;;;6.22;4.32;;;;;;;15.74;60.05;101602.28;5044397;28;20029;-72
2021/06/03 01:58:06;;;;;;;6.32;4.30;;;;;;;15.71;60.15;101602.16;5032580;28;20075;-73
2021/06/03 02:00:31;;;;;;;8.23;4.32;;;;;;;15.89;59.43;101601.19;5020396;28;20036;-73
2021/06/03 02:02:57;;;;;;;11.10;4.43;;;;;;;15.63;60.31;101603.53;5036972;28;20061;-73
2021/06/03 02:05:23;;;;;;;7.03;4.57;;;;;;;15.72;59.81;101611.72;5034686;28;20037;-73
2021/06/03 02:07:48;;;;;;;6.93;4.25;;;;;;;15.69;59.96;101606.38;5034022;28;20108;-73
2021/06/03 02:10:15;;;;;;;8.57;5.45;;;;;;;15.74;60.43;101611.78;5034181;28;20029;-73
2021/06/03 02:12:55;;;;;;;6.03;4.25;;;;;;;15.74;59.78;101612.66;5034016;28;20048;-73
2021/06/03 02:15:23;;;;;;;5.82;4.65;;;;;;;15.73;59.98;101617.78;5029409;28;20028;-73
2021/06/03 02:17:52;;;;;;;6.90;4.05;;;;;;;15.59;60.24;101617.19;5054021;28;20033;-73
2021/06/03 02:20:24;;;;;;;7.95;4.50;;;;;;;15.54;60.48;101613.50;5037224;28;20135;-73
2021/06/03 02:22:51;;;;;;;6.47;4.55;;;;;;;15.63;60.34;101619.09;5053787;28;20045;-73
2021/06/03 02:25:17;;;;;;;5.85;4.10;;;;;;;15.61;60.58;101621.63;5042734;28;20398;-73
2021/06/03 02:27:45;;;;;;;6.68;4.93;;;;;;;15.45;60.98;101622.66;5033954;28;20419;-73
2021/06/03 02:30:11;;;;;;;8.40;4.43;;;;;;;15.39;61.00;101616.28;5034082;28;20030;-73
2021/06/03 02:32:37;;;;;;;7.53;4.55;;;;;;;15.51;60.83;101618.56;5033845;28;20033;-73
2021/06/03 02:35:04;;;;;;;9.13;5.13;;;;;;;15.48;60.58;101617.59;5034720;28;20095;-72
2021/06/03 02:37:30;;;;;;;7.28;4.70;;;;;;;15.54;60.48;101613.50;5033566;28;20090;-73
2021/06/03 02:40:00;;;;;;;7.95;5.22;;;;;;;15.46;60.70;101611.47;5033793;28;20100;-72
2021/06/03 02:42:26;;;;;;;8.88;4.55;;;;;;;15.51;60.72;101613.38;5033745;28;20025;-72
2021/06/03 02:44:52;;;;;;;8.52;5.22;;;;;;;15.44;60.67;101612.19;5040108;28;20036;-72
2021/06/03 02:47:17;;;;;;;6.63;4.30;;;;;;;15.47;60.48;101623.63;5053426;28;20025;-72
2021/06/03 02:49:42;;;;;;;8.65;5.28;;;;;;;15.47;60.55;101623.63;5036850;28;20025;-72
2021/06/03 02:52:08;;;;;;;9.77;4.82;;;;;;;15.53;60.42;101619.53;5046730;28;20371;-72
2021/06/03 02:54:34;;;;;;;8.95;4.78;;;;;;;15.51;60.59;101628.94;5033596;28;20025;-73
2021/06/03 02:56:59;;;;;;;6.60;4.72;;;;;;;15.45;60.75;101625.25;5034691;28;20025;-73
2021/06/03 02:59:25;;;;;;;8.90;4.90;;;;;;;15.58;60.39;101626.69;5033258;28;20096;-72
2021/06/03 03:01:50;;;;;;;9.07;4.70;;;;;;;15.43;60.65;101620.81;5036190;28;20509;-73
2021/06/03 03:04:16;;;;;;;7.00;4.75;;;;;;;15.44;60.73;101627.78;5053258;28;20040;-73
2021/06/03 03:06:41;;;;;;;7.32;5.15;;;;;;;15.40;61.16;101621.56;5036732;28;20037;-73
2021/06/03 03:09:07;;;;;;;5.53;4.45;;;;;;;15.47;60.90;101628.81;5052723;28;20459;-73
2021/06/03 03:11:33;;;;;;;7.88;4.50;;;;;;;15.45;60.61;101625.25;5036264;28;20359;-73
2021/06/03 03:13:58;;;;;;;22.33;5.65;;;;;;;15.22;61.59;101631.09;5033092;28;20096;-72
2021/06/03 03:16:24;;;;;;;8.23;5.18;;;;;;;15.12;62.04;101630.66;5034334;28;20441;-73
2021/06/03 03:18:50;;;;;;;8.27;5.20;;;;;;;15.15;62.07;101628.22;5032919;28;20083;-73
2021/06/03 03:21:15;;;;;;;8.75;4.75;;;;;;;15.16;61.95;101627.41;5029950;28;20068;-73
2021/06/03 03:23:41;;;;;;;6.32;4.47;;;;;;;15.24;61.63;101629.44;5052830;28;20074;-73
2021/06/03 03:26:06;;;;;;;7.75;4.82;;;;;;;15.15;61.81;101630.81;5052696;28;20073;-73
2021/06/03 03:28:32;;;;;;;7.60;5.35;;;;;;;15.14;61.67;101626.44;5052726;28;20090;-73
2021/06/03 03:30:58;;;;;;;8.93;4.75;;;;;;;15.28;61.35;101628.78;5043416;28;20040;-73
2021/06/03 03:33:24;;;;;;;7.90;5.28;;;;;;;15.29;61.45;101640.94;5047696;28;20032;-73
2021/06/03 03:35:50;;;;;;;9.10;4.88;;;;;;;15.26;61.40;101633.00;5052577;28;20025;-73
2021/06/03 03:38:17;;;;;;;6.13;4.30;;;;;;;15.38;61.14;101633.59;5053672;28;20047;-73
2021/06/03 03:40:43;;;;;;;7.70;4.97;;;;;;;15.27;61.21;101629.59;5052381;28;20036;-72
2021/06/03 03:43:09;;;;;;;7.30;5.30;;;;;;;15.37;61.18;101631.78;5052396;28;20025;-72
2021/06/03 03:45:35;;;;;;;9.00;5.03;;;;;;;15.37;60.91;101636.97;5033754;28;20028;-72
2021/06/03 03:48:03;;;;;;;8.48;4.75;;;;;;;15.36;60.85;101635.19;5032258;28;20029;-73
2021/06/03 03:50:29;;;;;;;7.47;4.40;;;;;;;15.39;61.13;101640.56;5040083;28;20021;-73
2021/06/03 03:52:55;;;;;;;8.27;4.88;;;;;;;15.45;60.76;101640.84;5052345;28;20020;-73
2021/06/03 03:55:21;;;;;;;6.03;4.72;;;;;;;15.44;60.32;101638.16;5046056;28;20071;-72
2021/06/03 03:57:48;;;;;;;10.15;5.68;;;;;;;15.52;60.10;101646.31;5029014;28;20417;-73
2021/06/03 04:00:21;;;;;;;6.45;4.13;;;;;;;15.50;60.51;101642.75;5041269;28;20375;-73
2021/06/03 04:02:47;;;;;;;6.47;4.57;;;;;;;15.51;60.50;101641.94;5040686;28;20108;-73
2021/06/03 04:05:13;;;;;;;6.93;4.38;;;;;;;15.62;59.75;101648.50;5042365;28;20108;-73
2021/06/03 04:07:40;;;;;;;6.85;4.75;;;;;;;15.58;60.18;101642.25;5026457;28;20120;-73
2021/06/03 04:10:08;;;;;;;7.45;4.63;;;;;;;15.65;59.78;101638.25;5040548;28;20024;-73
2021/06/03 04:12:34;;;;;;;8.68;4.55;;;;;;;15.64;60.14;101649.44;5040745;28;20091;-73
2021/06/03 04:15:00;;;;;;;12.68;4.57;;;;;;;15.75;59.47;101642.13;5042583;28;20013;-73
2021/06/03 04:17:26;;;;;;;7.15;5.03;;;;;;;15.84;59.36;101650.31;5040719;28;20039;-73
2021/06/03 04:19:52;;;;;;;9.00;4.55;;;;;;;15.89;59.30;101653.16;5048286;28;20036;-73
2021/06/03 04:22:17;;;;;;;8.95;4.53;;;;;;;15.87;59.38;101646.97;5040184;28;20033;-73
2021/06/03 04:24:43;;;;;;;8.20;4.50;;;;;;;15.95;59.17;101648.22;5043326;28;20082;-73
2021/06/03 04:27:08;;;;;;;10.52;4.70;;;;;;;15.98;58.68;101637.97;5037270;28;20025;-73
2021/06/03 04:29:33;;;;;;;6.57;4.68;;;;;;;16.08;58.85;101643.53;5015279;28;20033;-74
2021/06/03 04:31:59;;;;;;;9.07;4.53;;;;;;;16.10;58.46;101652.28;5031550;28;20052;-73
2021/06/03 04:34:24;;;;;;;5.68;4.18;;;;;;;16.10;58.71;101647.09;5031612;28;20024;-73
2021/06/03 04:36:50;;;;;;;9.32;4.55;;;;;;;16.25;57.92;101647.75;5032400;28;20459;-74
2021/06/03 04:39:16;;;;;;;6.13;4.38;;;;;;;16.31;57.79;101658.41;5052603;28;20031;-80
2021/06/03 04:41:42;;;;;;;8.18;4.32;;;;;;;16.36;57.20;101654.28;5036474;28;20017;-72
2021/06/03 04:44:07;;;;;;;8.38;4.43;;;;;;;16.45;57.42;101653.78;5031658;28;20021;-72
2021/06/03 04:46:33;;;;;;;7.05;4.47;;;;;;;16.42;57.21;101655.34;5031557;28;20029;-73
2021/06/03 04:48:58;;;;;;;10.48;4.32;;;;;;;16.56;57.56;101654.22;5031302;28;20054;-73
2021/06/03 04:51:24;;;;;;;9.88;4.20;;;;;;;16.70;56.27;101656.50;5042237;28;20415;-74
2021/06/03 04:53:50;;;;;;;6.68;4.40;;;;;;;16.76;56.65;101659.34;5052275;28;20028;-74
2021/06/03 04:56:15;;;;;;;7.43;3.83;;;;;;;16.80;55.92;101648.25;5035286;28;20049;-74
2021/06/03 04:58:41;;;;;;;10.82;4.60;;;;;;;16.78;56.52;101649.91;5032711;28;20436;-73
2021/06/03 05:01:07;;;;;;;6.03;4.03;;;;;;;16.93;56.37;101660.91;5031400;28;20039;-74
2021/06/03 05:03:32;;;;;;;8.75;4.80;;;;;;;16.99;55.48;101654.19;5034598;28;20136;-74
2021/06/03 05:05:58;;;;;;;7.40;4.25;;;;;;;17.12;55.25;101648.63;5036333;28;20099;-74
2021/06/03 05:08:23;;;;;;;5.90;3.75;;;;;;;17.17;55.84;101654.91;5043340;28;20102;-74
2021/06/03 05:10:48;;;;;;;6.78;4.25;;;;;;;17.20;55.11;101655.03;5042214;28;20032;-74
2021/06/03 05:13:14;;;;;;;8.02;4.15;;;;;;;17.21;55.31;101651.59;5025483;28;20032;-74
2021/06/03 05:15:40;;;;;;;6.32;3.90;;;;;;;17.35;55.27;101653.81;5037044;28;20026;-73
2021/06/03 05:18:05;;;;;;;7.38;4.40;;;;;;;17.31;54.31;101654.53;5038432;28;20041;-73
2021/06/03 05:20:31;;;;;;;6.10;4.03;;;;;;;17.42;54.26;101655.81;5040797;28;20021;-74
2021/06/03 05:22:58;;;;;;;10.18;4.22;;;;;;;17.46;54.87;101657.72;5030573;28;20057;-75
2021/06/03 05:25:26;;;;;;;6.47;3.90;;;;;;;17.46;54.81;101656.84;5032295;28;20025;-75
2021/06/03 05:27:51;;;;;;;5.30;3.40;;;;;;;17.65;54.54;101663.63;5039940;28;20028;-75
2021/06/03 05:30:18;;;;;;;8.40;4.20;;;;;;;17.76;53.73;101662.28;5051293;28;20021;-74
2021/06/03 05:32:44;;;;;;;7.22;4.15;;;;;;;17.88;53.88;101671.38;5052046;28;20032;-75
2021/06/03 05:35:12;;;;;;;7.60;3.72;;;;;;;17.95;53.88;101673.34;5054919;28;20017;-75
2021/06/03 05:37:39;;;;;;;7.32;3.85;;;;;;;18.03;53.55;101666.72;5052755;28;20362;-76
2021/06/03 05:40:06;;;;;;;7.20;4.80;;;;;;;18.13;53.24;101661.81;5044661;28;20083;-76
2021/06/03 05:42:32;;;;;;;8.60;3.90;;;;;;;18.28;52.49;101662.34;5034796;28;20348;-77
2021/06/03 05:44:58;;;;;;;5.93;4.07;;;;;;;18.32;53.04;101659.00;5035843;28;20026;-76
2021/06/03 05:47:24;;;;;;;5.40;3.47;;;;;;;18.44;51.91;101648.09;5036874;28;20031;-75
2021/06/03 05:49:49;;;;;;;5.38;3.60;;;;;;;18.52;52.21;101650.94;5037056;28;20026;-75
2021/06/03 05:52:15;;;;;;;4.93;3.63;;;;;;;18.64;52.19;101664.41;5034908;28;20044;-76
2021/06/03 05:54:41;;;;;;;8.23;4.15;;;;;;;18.60;52.49;101659.94;5034382;28;20025;-74
2021/06/03 05:57:07;;;;;;;7.25;4.05;;;;;;;18.85;52.25;101676.38;5035725;28;20039;-74
2021/06/03 05:59:32;;;;;;;7.97;4.22;;;;;;;18.84;50.30;101664.16;5036417;28;20030;-74
2021/06/03 06:02:05;;;;;;;6.80;3.90;;;;;;;19.05;51.25;101673.53;5046246;28;20025;-77
2021/06/03 06:06:57;;;;;;;7.50;3.80;;;;;;;19.15;50.57;101670.34;5074961;28;20024;-76
2021/06/03 06:09:23;;;;;;;5.20;3.58;;;;;;;19.20;51.09;101674.00;5073429;28;20351;-76
2021/06/03 06:11:49;;;;;;;9.25;3.38;;;;;;;19.39;49.65;101684.97;5055589;28;20051;-77
2021/06/03 06:14:14;;;;;;;4.32;3.05;;;;;;;19.54;49.61;101677.59;5054678;28;20087;-76
2021/06/03 06:16:40;;;;;;;5.78;4.00;;;;;;;19.51;48.85;101680.09;5053506;28;20025;-76
2021/06/03 06:19:07;;;;;;;6.40;3.97;;;;;;;19.52;48.66;101681.00;5051539;28;20036;-76
2021/06/03 06:21:34;;;;;;;7.85;3.70;;;;;;;19.56;48.81;101678.50;5053461;28;20044;-77
2021/06/03 06:23:59;;;;;;;6.35;3.35;;;;;;;19.40;48.77;101687.66;5053670;28;20052;-76
2021/06/03 06:26:26;;;;;;;8.27;3.78;;;;;;;19.39;50.25;101685.88;5053237;28;20490;-78
2021/06/03 06:28:53;;;;;;;5.03;3.60;;;;;;;19.48;48.39;101693.09;5055067;28;20029;-77
2021/06/03 06:31:19;;;;;;;6.63;3.55;;;;;;;19.72;48.95;101699.88;5037217;28;20110;-78
2021/06/03 06:33:46;;;;;;;6.05;3.60;;;;;;;19.83;47.91;101698.44;5035596;28;20560;-77
2021/06/03 06:36:12;;;;;;;6.25;3.53;;;;;;;19.96;49.08;101690.97;5053906;28;20132;-78
2021/06/03 06:38:37;;;;;;;6.50;4.25;;;;;;;19.92;47.20;101694.34;5050104;28;20025;-77
2021/06/03 06:41:04;;;;;;;8.40;3.65;;;;;;;20.02;47.57;101698.97;5034781;28;20471;-77
2021/06/03 06:43:30;;;;;;;6.50;3.78;;;;;;;20.12;47.92;101693.16;5033661;28;20057;-77
2021/06/03 06:45:55;;;;;;;6.53;3.80;;;;;;;20.02;47.77;101709.44;5032918;28;20021;-77
2021/06/03 06:48:21;;;;;;;4.75;3.35;;;;;;;19.82;47.48;101701.00;5033571;28;20025;-77
2021/06/03 06:50:49;;;;;;;9.55;4.10;;;;;;;19.89;46.96;101712.53;5033749;28;20025;-77
2021/06/03 06:53:15;;;;;;;6.45;3.72;;;;;;;20.06;46.24;101713.91;5033563;28;20029;-78
2021/06/03 06:55:41;;;;;;;11.63;4.15;;;;;;;20.23;46.92;101708.25;5016958;28;20115;-78
2021/06/03 06:58:07;;;;;;;7.93;3.80;;;;;;;20.23;46.57;101703.00;5034510;28;20026;-77
2021/06/03 07:00:35;;;;;;;7.72;4.25;;;;;;;20.35;46.28;101703.31;5033397;28;20034;-78
2021/06/03 07:03:02;;;;;;;9.15;3.75;;;;;;;20.31;46.65;101711.94;5033363;28;20021;-76
2021/06/03 07:05:28;;;;;;;8.98;4.00;;;;;;;20.37;47.41;101712.09;5033234;28;20103;-76
2021/06/03 07:07:55;;;;;;;6.07;3.35;;;;;;;20.62;47.11;101717.94;5033726;28;20031;-77
2021/06/03 07:10:21;;;;;;;8.63;3.53;;;;;;;20.70;46.99;101716.44;5032845;28;20072;-77
2021/06/03 07:12:48;;;;;;;7.13;3.90;;;;;;;20.85;45.84;101720.31;5033143;28;20100;-77
2021/06/03 07:15:14;;;;;;;6.28;3.60;;;;;;;20.82;44.68;101712.38;5033148;28;20079;-76
2021/06/03 07:17:39;;;;;;;11.45;4.10;;;;;;;20.82;44.91;101720.22;5034185;28;20458;-76
2021/06/03 07:20:14;;;;;;;5.65;3.88;;;;;;;21.10;45.80;101726.09;5033389;28;20120;-76
2021/06/03 07:22:45;;;;;;;7.45;4.20;;;;;;;20.98;44.65;101727.59;5034008;28;20056;-76
2021/06/03 07:25:11;;;;;;;9.23;4.25;;;;;;;20.94;44.49;101715.28;5032886;28;20029;-76
2021/06/03 07:27:38;;;;;;;7.22;3.33;;;;;;;21.09;44.68;101729.56;5032843;28;20549;-76
2021/06/03 07:30:09;;;;;;;10.23;3.55;;;;;;;21.22;44.76;101736.84;5016355;28;20053;-76
2021/06/03 07:32:35;;;;;;;8.68;4.18;;;;;;;21.22;44.05;101731.63;5032739;28;20393;-77
2021/06/03 07:35:03;;;;;;;13.07;4.00;;;;;;;21.51;44.48;101728.75;5034105;28;20100;-76
2021/06/03 07:37:29;;;;;;;7.95;3.55;;;;;;;21.68;44.30;101725.63;5016412;28;20552;-76
2021/06/03 07:39:55;;;;;;;7.22;3.50;;;;;;;21.65;43.29;101722.94;5033850;28;20021;-77
2021/06/03 07:42:20;;;;;;;11.90;4.07;;;;;;;21.80;43.11;101725.88;5032690;28;20030;-76
2021/06/03 07:44:46;;;;;;;10.55;3.80;;;;;;;22.00;43.69;101722.78;5032487;28;20068;-76
2021/06/03 07:47:13;;;;;;;9.38;3.60;;;;;;;21.93;44.45;101723.50;5032550;28;20022;-76
2021/06/03 07:49:38;;;;;;;7.25;3.85;;;;;;;21.82;43.62;101718.94;5033570;28;20455;-77
2021/06/03 07:52:05;;;;;;;8.90;4.30;;;;;;;21.98;43.55;101714.84;5032652;28;20067;-76
2021/06/03 07:54:30;;;;;;;13.20;3.95;;;;;;;21.99;41.18;101721.88;5033677;28;20021;-76
2021/06/03 07:56:56;;;;;;;14.50;4.28;;;;;;;22.00;42.11;101722.78;5015797;28;20382;-76
2021/06/03 07:59:22;;;;;;;11.50;4.10;;;;;;;22.03;42.03;101720.19;5015787;28;20438;-75
2021/06/03 08:01:48;;;;;;;7.63;3.70;;;;;;;21.93;41.48;101720.88;5031698;28;20100;-76
2021/06/03 08:04:13;;;;;;;12.82;4.38;;;;;;;21.99;42.17;101726.25;5030680;28;20041;-77
2021/06/03 08:06:39;;;;;;;7.13;4.20;;;;;;;22.08;41.60;101702.81;5031965;28;20061;-77
2021/06/03 08:09:04;;;;;;;11.20;3.88;;;;;;;22.53;41.93;101715.84;5030575;28;20109;-73
2021/06/03 08:11:31;;;;;;;8.30;3.58;;;;;;;22.50;41.42;101702.69;5030698;28;20390;-74
2021/06/03 08:13:57;;;;;;;5.95;3.22;;;;;;;22.54;40.44;101700.13;5030663;28;20407;-73
2021/06/03 08:16:22;;;;;;;12.25;3.40;;;;;;;22.80;40.95;101706.63;5031572;28;20030;-73
2021/06/03 08:18:47;;;;;;;10.93;3.53;;;;;;;22.97;40.77;101699.94;5031930;28;20036;-73
2021/06/03 08:21:13;;;;;;;9.50;3.70;;;;;;;23.24;42.18;101703.81;5032996;28;20022;-73
2021/06/03 08:23:39;;;;;;;9.15;3.50;;;;;;;23.29;40.65;101702.13;5031801;28;20043;-74
2021/06/03 08:26:04;;;;;;;7.15;3.40;;;;;;;23.07;41.40;101710.56;5031802;28;20112;-74
2021/06/03 08:28:31;;;;;;;6.75;4.20;;;;;;;23.47;41.32;101716.38;5031681;28;20077;-73
2021/06/03 08:30:59;;;;;;;5.95;3.30;;;;;;;23.59;41.59;101716.53;5033098;28;20033;-74
2021/06/03 08:33:26;;;;;;;6.65;3.58;;;;;;;23.76;40.35;101707.97;5031527;28;20021;-74
2021/06/03 08:35:52;;;;;;;7.13;3.42;;;;;;;23.93;39.78;101714.31;5031897;28;20052;-72
2021/06/03 08:38:18;;;;;;;5.10;3.45;;;;;;;23.66;38.55;101712.25;5015359;28;20044;-73
2021/06/03 08:40:49;;;;;;;9.05;3.63;;;;;;;23.69;40.22;101708.75;5031762;28;20021;-75
2021/06/03 08:43:15;;;;;;;5.28;3.60;;;;;;;23.30;40.48;101719.69;5032848;28;20036;-75
2021/06/03 08:45:42;;;;;;;5.63;3.15;;;;;;;23.46;39.67;101709.34;5031742;28;20021;-75
2021/06/03 08:48:09;;;;;;;5.63;3.58;;;;;;;23.54;39.72;101718.22;5015087;28;20033;-74
2021/06/03 08:50:39;;;;;;;9.25;3.60;;;;;;;23.68;40.36;101712.25;5032784;28;20033;-74
2021/06/03 08:53:05;;;;;;;8.23;3.35;;;;;;;23.62;39.10;101721.81;5015040;28;20044;-75
2021/06/03 08:58:17;;;;;;;10.18;4.03;;;;;;;23.37;38.84;101704.00;5033306;28;20033;-70
2021/06/03 09:00:43;;;;;;;5.68;3.50;;;;;;;23.68;39.54;101714.88;5032823;28;20467;-76
2021/06/03 09:03:10;;;;;;;7.30;3.13;;;;;;;23.64;39.77;101708.72;5031629;28;20083;-73
2021/06/03 09:05:38;;;;;;;10.00;3.78;;;;;;;23.35;40.74;101717.13;5033036;28;20022;-72
2021/06/03 09:08:17;;;;;;;6.72;4.00;;;;;;;23.08;39.54;101728.09;5032704;28;20025;-71
2021/06/03 09:10:44;;;;;;;8.35;3.50;;;;;;;22.82;39.80;101721.56;5036673;28;20026;-84
2021/06/03 09:13:17;;;;;;;11.23;3.92;;;;;;;22.74;40.12;101718.81;5036681;28;20105;-75
2021/06/03 09:16:13;;;;;;;5.88;3.55;;;;;;;22.53;41.11;101718.47;5035409;28;20099;-74
2021/06/03 09:18:43;;;;;;;9.52;3.65;;;;;;;23.93;38.20;101722.22;5034693;28;20037;-69
2021/06/03 09:21:27;;;;;;;11.48;3.47;;;;;;;25.15;36.12;101720.63;5036356;28;20079;-69
2021/06/03 09:24:02;;;;;;;5.72;3.75;;;;;;;25.18;34.97;101723.28;5035156;28;20395;-70
2021/06/03 09:26:30;;;;;;;5.70;3.10;;;;;;;25.64;34.38;101723.50;5035987;28;20108;-70
2021/06/03 09:28:57;;;;;;;6.10;3.20;;;;;;;25.09;35.65;101725.00;5035415;28;20585;-70
2021/06/03 09:31:25;;;;;;;4.88;3.05;;;;;;;25.02;34.62;101717.91;5036467;28;20032;-70
2021/06/03 09:33:52;;;;;;;6.80;3.60;;;;;;;25.06;34.40;101714.44;5035353;28;20028;-70
2021/06/03 09:36:27;;;;;;;4.65;3.30;;;;;;;25.31;34.48;101701.38;5035407;28;20056;-68
2021/06/03 09:39:05;;;;;;;7.65;3.65;;;;;;;25.62;33.98;101698.03;5036445;28;20025;-70
2021/06/03 09:41:32;;;;;;;6.47;3.20;;;;;;;26.07;33.45;101701.63;5035311;28;20033;-70
2021/06/03 09:44:19;;;;;;;7.97;3.25;;;;;;;26.80;31.71;101701.63;5034874;28;20025;-70
2021/06/03 09:46:47;;;;;;;13.27;3.33;;;;;;;27.76;32.08;101712.81;5034727;28;20033;-68
2021/06/03 09:49:17;;;;;;;7.47;3.55;;;;;;;27.61;30.32;101717.31;5035673;28;20101;-69
2021/06/03 09:51:45;;;;;;;5.10;3.15;;;;;;;27.99;30.79;101721.50;5035936;28;20029;-69
2021/06/03 09:54:13;;;;;;;11.50;3.45;;;;;;;28.06;31.40;101722.34;5034597;28;20056;-69
2021/06/03 09:56:42;;;;;;;9.97;4.00;;;;;;;27.67;30.95;101732.31;5034596;28;20048;-69
2021/06/03 09:59:23;;;;;;;;;;;;;;;28.41;29.75;101717.72;5044719;28;20036;-69
2021/06/03 10:01:50;;;;;;;4.05;2.83;;;;;;;28.26;30.53;101724.91;5052876;28;19913;-69
2021/06/03 10:04:24;;;;;;;6.07;3.17;;;;;;;27.35;31.05;101718.28;5053081;28;20482;-69
2021/06/03 10:07:06;;;;;;;7.13;3.25;;;;;;;26.52;33.79;101719.31;5053540;28;20111;-69
2021/06/03 10:09:42;;;;;;;7.88;3.28;;;;;;;25.59;34.16;101719.97;5034490;28;20026;-69
2021/06/03 10:12:10;;;;;;;7.28;3.83;;;;;;;25.21;35.29;101702.19;5033279;28;20517;-69
2021/06/03 10:14:37;;;;;;;6.53;3.78;;;;;;;24.79;35.26;101705.44;5033349;28;20049;-68
2021/06/03 10:17:20;;;;;;;7.13;3.50;;;;;;;25.14;36.27;101710.94;5033599;28;20033;-69
2021/06/03 10:19:47;;;;;;;8.68;3.40;;;;;;;25.49;36.16;101712.91;5052967;28;20064;-69
2021/06/03 10:22:15;;;;;;;5.13;3.10;;;;;;;25.84;34.78;101720.03;5052878;28;20072;-69
2021/06/03 10:25:00;;;;;;;4.70;3.20;;;;;;;25.39;36.10;101711.94;5052854;28;20461;-69
2021/06/03 10:27:28;;;;;;;9.57;4.97;;;;;;;25.71;37.10;101718.25;5052715;28;20017;-69
2021/06/03 10:29:55;;;;;;;5.47;3.72;;;;;;;25.81;35.32;101704.22;5052795;28;20056;-68
2021/06/03 10:32:24;;;;;;;7.80;3.50;;;;;;;25.83;36.08;101707.72;5052802;28;20028;-67
2021/06/03 10:34:52;;;;;;;5.18;3.33;;;;;;;25.52;35.91;101702.38;5053983;28;20021;-68
2021/06/03 10:37:19;;;;;;;5.25;3.50;;;;;;;25.47;36.67;101693.56;5052442;28;20112;-68
2021/06/03 10:39:45;;;;;;;6.63;3.22;;;;;;;24.98;37.53;101692.41;5052757;28;20033;-69
2021/06/03 10:42:13;;;;;;;4.20;3.13;;;;;;;24.72;38.55;101698.34;5053764;28;20032;-68
2021/06/03 10:44:40;;;;;;;6.47;3.03;;;;;;;24.63;39.05;101703.53;5051054;28;20052;-67
2021/06/03 10:47:08;;;;;;;5.13;3.40;;;;;;;24.56;39.08;101701.75;5051118;28;20119;-68
2021/06/03 10:49:34;;;;;;;6.80;3.10;;;;;;;24.30;39.70;101699.78;5051088;28;20120;-68
2021/06/03 10:52:06;;;;;;;8.07;3.35;;;;;;;24.35;39.27;101698.06;5050924;28;20025;-67
2021/06/03 10:54:47;;;;;;;4.97;3.50;;;;;;;24.17;40.39;101699.66;5052115;28;20025;-68
2021/06/03 10:57:14;;;;;;;8.40;3.97;;;;;;;24.13;40.08;101703.13;5052252;28;20028;-68
2021/06/03 10:59:41;;;;;;;6.15;3.47;;;;;;;23.98;40.27;101718.75;5051000;28;20025;-68
2021/06/03 11:02:08;;;;;;;8.30;4.88;;;;;;;24.11;40.65;101720.66;5042944;28;20509;-68
2021/06/03 11:04:35;;;;;;;5.85;3.60;;;;;;;24.09;39.58;101717.13;5032228;28;20093;-68
2021/06/03 11:07:01;;;;;;;9.63;3.45;;;;;;;24.05;39.77;101723.22;5032192;28;20028;-67
2021/06/03 11:09:29;;;;;;;6.15;4.18;;;;;;;24.02;40.48;101725.84;5050825;28;20024;-68
2021/06/03 11:12:09;;;;;;;8.10;3.30;;;;;;;24.21;39.80;101733.03;5034178;28;20448;-67
2021/06/03 11:14:54;;;;;;;;;;;;;;;23.75;39.99;101732.50;5051130;28;20103;-68
2021/06/03 11:17:49;;;;;;;10.85;3.35;;;;;;;24.19;39.50;101729.50;5039644;28;20712;-68
2021/06/03 11:20:14;;;;;;;6.50;3.45;;;;;;;24.15;39.65;101738.25;5051828;28;20029;-68
2021/06/03 11:22:40;;;;;;;5.53;3.63;;;;;;;24.33;39.95;101727.00;5050374;28;20482;-68
2021/06/03 11:25:06;;;;;;;4.70;2.95;;;;;;;24.12;40.83;101743.47;5050318;28;20017;-68
2021/06/03 11:27:40;;;;;;;9.48;3.42;;;;;;;24.39;39.98;101738.44;5051721;28;20086;-68
2021/06/03 11:30:10;;;;;;;5.68;3.40;;;;;;;24.77;39.32;101733.53;5051452;28;20110;-68
2021/06/03 11:32:39;;;;;;;7.75;3.30;;;;;;;24.75;39.63;101740.53;5050866;28;20028;-68